Denton, Texas
Current Conditions -  °F | °C
As of 12:53 PM on Friday 24 Oct 2014 (Local Time) from KDTO Reporting Station
Clear Clear  
Wind Chill: 78°   Ceiling: Unl
Heat Index: 79°   Visibility: 10mi
Dew Point: 59°   Wind: 9mph
Humidity: 52%   Direction: 180°S
Pressure: 30.13"   Gusts: NA
Location:  33.22°N, 97.13°W
Report Text: KDTO 241753Z 18008KT 10SM CLR 26/15 A3013 RMK AO2 SLP196 T02560150 10256 20156 58011
Loading
Personal Weather Stations






























Interactive Weather Map
Tropical Storm Tracking
New forecast layout! Learn more

10-Day Weather Forecast

Advertisements
Track Severe Weather on mobile